Aeroporto :
LOGIN :

Iscrizione | Disclaimer

   EN    FR    IT 

 










Sommario :    VFR   VFR Marginale   IFR   IFR Intensivo   IFR Molto Intensivo
Visibilità : 
Base nubi : 
>= 8 km
>= 3000ft
5 / 8 km
1000 / 3000 ft
1500m / 5 km
500 / 1000 ft
800 / 1500m
200 / 500 ft
< 800m
< 200 ft
Simboli :   Temporali  Nebbia  Neve Forte  Precipitazioni Forti  Vento > 20 kt
SIGMETs :   Varie  Temporali  Ghiacco  Turbolenza  Onda orograficha  Ceneri Vulcaniche







- Altitudine del aeroporto : 194 ft


EBCV - Chièvres

ULTIMO METAR :
  • 200055Z AUTO 23006KT 9999 OVC010/// 19/17 Q1020 GRN

METARs OBSOLETI :
  • 200025Z AUTO 24006KT 9999 OVC012/// 19/17 Q1020 GRN
  • 192225Z AUTO 26007KT 9999 OVC013/// 19/17 Q1020 GRN

TAF COR TAF EBCV
Valido dal 19 a 19 ore il 20 a 07 ore UTC


191558Z 1919/2007 25010KT 9999 SCT015 SCT030
BECMG 1920/1922 BKN012 BKN020
BECMG 2000/2002 6000 BKN008
PROB30
TEMPO 2002/2007 4000 BR -DZ OVC005 BY EBWM
Nessun NOTAM noto per questo aeroporto.



MetMap, La meteo Aeronautica in un colpo d'occhio ! - Copyright ORBIFLY Dicembre 2007 - Disclaimer

ORBIFLY MET'MAP TEAM :

Programmazione e sviluppo : Alexandra Zaïnal
Concezione e sviluppo : Baudouin d'Aumeries
Co-Programmazione e sviluppo : Marc-Olivier Méhu
Supporto tecnico e logistico : Manuel Goepfert
Aiuto per la traduzione : Arnaldo La Scala

Contatto : metmap@orbifly.com




FONTI E CREDITI :

   NOAA